Time;durP1;ratioP1;P1;durP2;ratioP2;P2;SDS_P1;SDS_P2;PMS_P1;PMS_P2;Temp;Humidity;BMP_temperature;BMP_pressure;BME280_temperature;BME280_humidity;BME280_pressure;Samples;Min_cycle;Max_cycle;Signal;HPM_P1;HPM_P2
2024/03/15 00:00:00;;;;;;;2.50;1.60;;;11.60;91.30;;;;;;5047944;28;20021;-78
2024/03/15 00:02:26;;;;;;;4.82;2.17;;;11.80;91.70;;;;;;5048533;28;20044;-76
2024/03/15 00:04:53;;;;;;;1.33;1.20;;;;;;;;;;5048039;28;20040;-78
2024/03/15 00:07:20;;;;;;;4.53;2.10;;;;;;;;;;5040867;28;20017;-77
2024/03/15 00:09:46;;;;;;;;;;;11.40;75.70;;;;;;5043880;28;20139;-78
2024/03/15 00:12:12;;;;;;;5.53;1.65;;;;;;;;;;5048576;28;19908;-78
2024/03/15 00:14:38;;;;;;;2.10;1.63;;;;;;;;;;5047943;28;20107;-78
2024/03/15 00:17:04;;;;;;;3.95;1.50;;;;;;;;;;5048338;28;20098;-78
2024/03/15 00:19:30;;;;;;;3.55;2.05;;;;;;;;;;5048170;28;20092;-78
2024/03/15 00:21:58;;;;;;;3.08;2.15;;;;;;;;;;5048423;28;20119;-78
2024/03/15 00:24:24;;;;;;;5.05;1.40;;;;;;;;;;5045214;28;20040;-78
2024/03/15 00:26:50;;;;;;;3.45;1.65;;;;;;;;;;5028799;28;20029;-79
2024/03/15 00:29:17;;;;;;;2.03;1.45;;;;;;;;;;5028685;28;20403;-77
2024/03/15 00:31:43;;;;;;;;;;;11.10;78.80;;;;;;5029340;28;20032;-78
2024/03/15 00:34:09;;;;;;;6.68;2.33;;;;;;;;;;5032182;28;20275;-78
2024/03/15 00:36:35;;;;;;;3.05;1.73;;;11.10;79.40;;;;;;5033558;28;20108;-78
2024/03/15 00:39:03;;;;;;;3.55;1.27;;;11.00;80.00;;;;;;5032979;28;20164;-78
2024/03/15 00:41:29;;;;;;;3.97;1.95;;;11.10;81.00;;;;;;5041623;28;20098;-77
2024/03/15 00:43:55;;;;;;;3.50;1.60;;;;;;;;;;5039700;28;20025;-78
2024/03/15 00:46:21;;;;;;;5.35;1.75;;;;;;;;;;5043414;28;20021;-78
2024/03/15 00:48:47;;;;;;;2.33;1.30;;;;;;;;;;5035206;28;20033;-78
2024/03/15 00:51:14;;;;;;;6.55;1.45;;;;;;;;;;5052575;28;20064;-78
2024/03/15 00:53:40;;;;;;;1.63;1.20;;;;;;;;;;5048549;28;20442;-78
2024/03/15 00:56:07;;;;;;;4.20;1.58;;;;;;;;;;5041978;28;20491;-78
2024/03/15 00:58:33;;;;;;;3.15;2.35;;;11.00;81.10;;;;;;5051074;28;20519;-78
2024/03/15 01:01:01;;;;;;;1.40;1.20;;;10.90;80.90;;;;;;5046568;28;20519;-77
2024/03/15 01:03:27;;;;;;;7.28;1.92;;;;;;;;;;5051368;28;20401;-77
2024/03/15 01:05:55;;;;;;;3.38;1.75;;;;;;;;;;5051507;28;20029;-78
2024/03/15 01:08:21;;;;;;;3.05;1.65;;;;;;;;;;5050507;28;20092;-78
2024/03/15 01:10:47;;;;;;;3.53;1.73;;;;;;;;;;5051643;28;20495;-77
2024/03/15 01:13:13;;;;;;;5.22;2.03;;;;;;;;;;5035158;28;20033;-77
2024/03/15 01:15:40;;;;;;;5.07;2.22;;;;;;;;;;5031775;28;20087;-78
2024/03/15 01:18:07;;;;;;;5.18;2.10;;;;;;;;;;5031094;28;20024;-78
2024/03/15 01:20:33;;;;;;;10.68;2.67;;;;;;;;;;5031615;28;20025;-78
2024/03/15 01:22:59;;;;;;;9.65;2.58;;;;;;;;;;5027990;28;20033;-77
2024/03/15 01:25:26;;;;;;;1.63;1.25;;;;;;;;;;5023270;28;20022;-78
2024/03/15 01:27:52;;;;;;;3.88;1.83;;;10.40;95.30;;;;;;5032446;28;20512;-77
2024/03/15 01:30:19;;;;;;;6.60;1.60;;;;;;;;;;5032147;28;20041;-78
2024/03/15 01:32:45;;;;;;;3.13;1.33;;;;;;;;;;5032046;28;20026;-78
2024/03/15 01:35:11;;;;;;;6.32;1.40;;;;;;;;;;5031547;28;20111;-78
2024/03/15 01:37:38;;;;;;;3.50;1.55;;;;;;;;;;5031495;28;20514;-78
2024/03/15 01:40:07;;;;;;;3.28;2.45;;;10.40;97.80;;;;;;5031344;28;20022;-78
2024/03/15 01:42:33;;;;;;;2.85;1.35;;;;;;;;;;5032856;28;20045;-78
2024/03/15 01:44:59;;;;;;;1.30;1.20;;;;;;;;;;5031275;28;20423;-78
2024/03/15 01:47:27;;;;;;;3.13;1.50;;;10.30;87.90;;;;;;5026637;28;20025;-78
2024/03/15 01:49:57;;;;;;;3.55;1.42;;;10.30;87.70;;;;;;5034044;28;20021;-78
2024/03/15 01:52:24;;;;;;;3.25;1.88;;;10.30;97.40;;;;;;5032325;28;20021;-78
2024/03/15 01:54:50;;;;;;;1.30;1.20;;;10.20;94.30;;;;;;5031484;28;20090;-76
2024/03/15 01:57:19;;;;;;;7.07;1.77;;;;;;;;;;5031310;28;20484;-77
2024/03/15 01:59:45;;;;;;;1.30;1.20;;;;;;;;;;5031045;28;20033;-78
2024/03/15 02:02:15;;;;;;;6.25;2.17;;;;;;;;;;5031304;28;20075;-77
2024/03/15 02:04:42;;;;;;;2.35;1.55;;;;;;;;;;5031626;28;20034;-78
2024/03/15 02:07:08;;;;;;;4.90;1.58;;;;;;;;;;5031780;28;20781;-78
2024/03/15 02:09:34;;;;;;;1.35;1.25;;;;;;;;;;5031252;28;20036;-77
2024/03/15 02:12:01;;;;;;;3.42;2.22;;;;;;;;;;5031307;28;20034;-77
2024/03/15 02:14:27;;;;;;;6.97;2.60;;;;;;;;;;5030764;28;20030;-77
2024/03/15 02:16:53;;;;;;;3.28;1.65;;;;;;;;;;5031208;28;20036;-78
2024/03/15 02:19:19;;;;;;;9.73;1.40;;;;;;;;;;5043183;28;20483;-78
2024/03/15 02:21:47;;;;;;;1.38;1.27;;;9.20;91.30;;;;;;5050547;28;20044;-78
2024/03/15 02:24:13;;;;;;;1.38;1.27;;;;;;;;;;5050075;28;20112;-78
2024/03/15 02:26:42;;;;;;;2.05;1.13;;;;;;;;;;5039551;28;20573;-78
2024/03/15 02:29:12;;;;;;;11.30;2.78;;;9.10;91.40;;;;;;5048775;28;20091;-78
2024/03/15 02:31:38;;;;;;;44.95;12.23;;;;;;;;;;5049906;28;20025;-78
2024/03/15 02:34:04;;;;;;;71.35;17.77;;;;;;;;;;5049083;28;20053;-78
2024/03/15 02:36:30;;;;;;;30.55;10.90;;;;;;;;;;5049572;28;20483;-78
2024/03/15 02:38:57;;;;;;;41.83;14.30;;;;;;;;;;5048908;28;20118;-77
2024/03/15 02:41:23;;;;;;;33.55;8.40;;;;;;;;;;5049286;28;20064;-78
2024/03/15 02:43:49;;;;;;;13.80;5.72;;;;;;;;;;5036538;28;20381;-77
2024/03/15 02:46:15;;;;;;;6.85;3.33;;;;;;;;;;5042082;28;20087;-78
2024/03/15 02:48:43;;;;;;;2.72;1.83;;;;;;;;;;5030787;28;20021;-78
2024/03/15 02:51:10;;;;;;;6.15;3.05;;;;;;;;;;5030564;28;20037;-78
2024/03/15 02:53:37;;;;;;;3.65;1.98;;;;;;;;;;5030931;28;20506;-78
2024/03/15 02:56:03;;;;;;;2.40;1.40;;;;;;;;;;5029665;28;20116;-77
2024/03/15 02:58:30;;;;;;;4.35;1.65;;;;;;;;;;5030615;28;20026;-77
2024/03/15 03:00:56;;;;;;;5.05;2.95;;;8.40;99.90;;;;;;5029931;28;20029;-77
2024/03/15 03:03:22;;;;;;;1.73;1.27;;;;;;;;;;5029917;28;20057;-77
2024/03/15 03:05:48;;;;;;;1.80;1.45;;;;;;;;;;5024870;28;20022;-78
2024/03/15 03:08:17;;;;;;;3.92;2.25;;;;;;;;;;5033211;28;20395;-77
2024/03/15 03:10:43;;;;;;;8.80;1.35;;;;;;;;;;5030472;28;20087;-77
2024/03/15 03:13:09;;;;;;;2.88;1.80;;;;;;;;;;5042579;28;20029;-78
2024/03/15 03:15:35;;;;;;;1.75;1.42;;;;;;;;;;5037388;28;20021;-76
2024/03/15 03:18:01;;;;;;;2.00;1.45;;;;;;;;;;5029790;28;20017;-78
2024/03/15 03:20:32;;;;;;;4.43;1.40;;;;;;;;;;5029838;28;20407;-78
2024/03/15 03:22:58;;;;;;;2.47;1.70;;;;;;;;;;5019094;28;20029;-78
2024/03/15 03:25:24;;;;;;;6.53;1.45;;;8.00;99.90;;;;;;5029015;28;20026;-77
2024/03/15 03:27:50;;;;;;;1.92;1.70;;;;;;;;;;5045602;28;20056;-78
2024/03/15 03:30:17;;;;;;;2.40;1.95;;;;;;;;;;5048848;28;20021;-77
2024/03/15 03:32:43;;;;;;;2.28;1.60;;;;;;;;;;5048382;28;20529;-78
2024/03/15 03:35:09;;;;;;;1.05;0.95;;;8.10;99.90;;;;;;5049098;28;20033;-77
2024/03/15 03:37:37;;;;;;;6.20;1.73;;;;;;;;;;5047887;28;20029;-77
2024/03/15 03:40:07;;;;;;;;;;;8.00;95.60;;;;;;5046603;28;20063;-77
2024/03/15 03:42:33;;;;;;;3.95;1.83;;;;;;;;;;5029519;28;19917;-77
2024/03/15 03:44:59;;;;;;;2.97;1.80;;;;;;;;;;5044877;28;20048;-77
2024/03/15 03:47:24;;;;;;;2.33;1.70;;;;;;;;;;5048654;28;20475;-77
2024/03/15 03:49:51;;;;;;;2.60;1.60;;;;;;;;;;5033664;28;20016;-78
2024/03/15 03:52:17;;;;;;;2.78;1.55;;;;;;;;;;5049041;28;20403;-77
2024/03/15 03:54:44;;;;;;;4.43;1.45;;;;;;;;;;5048599;28;20464;-78
2024/03/15 03:57:22;;;;;;;1.73;1.20;;;7.70;96.40;;;;;;5049804;28;20033;-78
2024/03/15 03:59:49;;;;;;;4.45;1.30;;;;;;;;;;5042607;28;20404;-78
2024/03/15 04:02:15;;;;;;;2.17;0.93;;;;;;;;;;5029478;28;20037;-78
2024/03/15 04:04:42;;;;;;;8.43;1.77;;;;;;;;;;5035184;28;20028;-78
2024/03/15 04:07:09;;;;;;;9.48;1.88;;;7.60;96.30;;;;;;5048688;28;20051;-77
2024/03/15 04:09:35;;;;;;;1.75;1.58;;;;;;;;;;5016265;28;20138;-78
2024/03/15 04:12:02;;;;;;;1.60;1.10;;;7.40;96.60;;;;;;5024258;28;20030;-77
2024/03/15 04:14:27;;;;;;;3.17;2.10;;;;;;;;;;5029952;28;20495;-78
2024/03/15 04:16:54;;;;;;;2.90;1.48;;;;;;;;;;5041243;28;20035;-77
2024/03/15 04:19:22;;;;;;;2.10;1.90;;;;;;;;;;5041939;28;20025;-78
2024/03/15 04:21:48;;;;;;;1.92;1.73;;;;;;;;;;5048084;28;20094;-78
2024/03/15 04:24:16;;;;;;;2.90;1.83;;;;;;;;;;5047574;28;20029;-78
2024/03/15 04:26:42;;;;;;;3.88;2.03;;;;;;;;;;5047653;28;20025;-78
2024/03/15 04:29:08;;;;;;;6.72;1.83;;;;;;;;;;5046559;28;20499;-78
2024/03/15 04:31:34;;;;;;;4.00;2.15;;;;;;;;;;5048219;28;20067;-77
2024/03/15 04:34:00;;;;;;;3.38;1.98;;;;;;;;;;5047837;28;20045;-78
2024/03/15 04:36:27;;;;;;;3.58;2.08;;;7.30;97.20;;;;;;5048248;28;20104;-78
2024/03/15 04:38:53;;;;;;;3.22;1.45;;;;;;;;;;5047947;28;20036;-78
2024/03/15 04:41:23;;;;;;;2.50;1.85;;;;;;;;;;5048029;28;20441;-77
2024/03/15 04:43:49;;;;;;;2.45;1.48;;;;;;;;;;5047708;28;20087;-78
2024/03/15 04:46:18;;;;;;;1.67;1.27;;;;;;;;;;5046919;28;20029;-78
2024/03/15 04:48:44;;;;;;;1.55;1.23;;;;;;;;;;5035316;28;20120;-78
2024/03/15 04:51:10;;;;;;;4.22;1.77;;;;;;;;;;5047778;28;20029;-78
2024/03/15 04:53:37;;;;;;;2.28;1.52;;;7.40;99.40;;;;;;5048114;28;20025;-78
2024/03/15 04:56:03;;;;;;;1.50;1.40;;;7.70;99.90;;;;;;5045888;28;20377;-77
2024/03/15 04:58:31;;;;;;;2.40;1.45;;;;;;;;;;5046458;28;20028;-78
2024/03/15 05:00:57;;;;;;;1.63;1.52;;;;;;;;;;5047521;28;20080;-77
2024/03/15 05:03:23;;;;;;;2.35;1.38;;;;;;;;;;5035985;28;20061;-78
2024/03/15 05:05:50;;;;;;;4.13;1.88;;;;;;;;;;5026731;28;20396;-78
2024/03/15 05:08:16;;;;;;;1.70;1.20;;;;;;;;;;5036243;28;20036;-78
2024/03/15 05:10:42;;;;;;;1.30;1.20;;;;;;;;;;5045631;28;20276;-78
2024/03/15 05:13:08;;;;;;;2.42;1.70;;;;;;;;;;5047317;28;20028;-78
2024/03/15 05:15:34;;;;;;;13.93;3.08;;;;;;;;;;5034277;28;20037;-77
2024/03/15 05:18:00;;;;;;;4.25;1.83;;;;;;;;;;5028031;28;20068;-77
2024/03/15 05:20:26;;;;;;;6.47;2.42;;;;;;;;;;5031225;28;20171;-77
2024/03/15 05:22:52;;;;;;;4.18;1.73;;;;;;;;;;5031924;28;20527;-78
2024/03/15 05:25:18;;;;;;;3.33;2.20;;;;;;;;;;5044688;28;20029;-78
2024/03/15 05:27:45;;;;;;;2.28;1.85;;;;;;;;;;5040516;28;20041;-78
2024/03/15 05:30:17;;;;;;;13.43;1.90;;;;;;;;;;5037656;28;20044;-78
2024/03/15 05:32:43;;;;;;;16.88;2.67;;;;;;;;;;5032152;28;20023;-78
2024/03/15 05:35:09;;;;;;;5.13;1.95;;;;;;;;;;5034975;28;20111;-78
2024/03/15 05:37:35;;;;;;;2.97;1.80;;;;;;;;;;5045203;28;20021;-77
2024/03/15 05:40:02;;;;;;;4.30;2.30;;;;;;;;;;5034278;28;20122;-78
2024/03/15 05:42:31;;;;;;;12.90;3.58;;;;;;;;;;5041027;28;20032;-77
2024/03/15 05:44:57;;;;;;;3.05;2.25;;;;;;;;;;5051241;28;20020;-78
2024/03/15 05:47:23;;;;;;;3.75;2.78;;;;;;;;;;5051546;28;20484;-78
2024/03/15 05:49:50;;;;;;;3.67;2.35;;;;;;;;;;5037379;28;20052;-78
2024/03/15 05:52:16;;;;;;;3.58;2.63;;;;;;;;;;5033048;28;20022;-78
2024/03/15 05:54:42;;;;;;;5.32;2.58;;;;;;;;;;5038960;28;20036;-78
2024/03/15 05:57:08;;;;;;;4.28;2.75;;;;;;;;;;5022201;28;20137;-78
2024/03/15 05:59:35;;;;;;;6.93;2.83;;;;;;;;;;5019754;28;20050;-77
2024/03/15 06:02:01;;;;;;;3.50;2.77;;;;;;;;;;5033284;28;20044;-78
2024/03/15 06:04:27;;;;;;;11.38;2.78;;;;;;;;;;5035453;28;20021;-78
2024/03/15 06:06:53;;;;;;;2.78;2.33;;;;;;;;;;5024162;28;20029;-78
2024/03/15 06:09:19;;;;;;;8.23;3.97;;;;;;;;;;5032925;28;20419;-77
2024/03/15 06:11:45;;;;;;;6.82;2.50;;;;;;;;;;5032724;28;20032;-78
2024/03/15 06:14:11;;;;;;;4.82;2.92;;;;;;;;;;5034454;28;20057;-77
2024/03/15 06:16:40;;;;;;;12.52;2.85;;;8.10;97.00;;;;;;5039229;28;20055;-78
2024/03/15 06:19:07;;;;;;;3.85;2.38;;;;;;;;;;5035495;28;20503;-77
2024/03/15 06:21:33;;;;;;;4.82;2.00;;;;;;;;;;5046477;28;20036;-78
2024/03/15 06:24:03;;;;;;;4.43;2.43;;;;;;;;;;5042983;28;20486;-78
2024/03/15 06:26:29;;;;;;;4.32;2.60;;;;;;;;;;5035805;28;20273;-77
2024/03/15 06:28:55;;;;;;;5.57;2.22;;;;;;;;;;5035315;28;20132;-78
2024/03/15 06:31:21;;;;;;;4.50;2.20;;;;;;;;;;5032630;28;20439;-77
2024/03/15 06:33:49;;;;;;;3.35;2.70;;;;;;;;;;5033846;28;20038;-78
2024/03/15 06:36:18;;;;;;;3.65;2.13;;;8.90;96.40;;;;;;5022776;28;20021;-78
2024/03/15 06:41:14;;;;;;;8.25;2.67;;;;;;;;;;5038348;28;20041;-78
2024/03/15 06:43:45;;;;;;;6.80;2.97;;;9.60;93.30;;;;;;5026838;28;20086;-80
2024/03/15 06:46:30;;;;;;;7.15;3.38;;;;;;;;;;5039309;28;20503;-78
2024/03/15 06:48:57;;;;;;;16.42;5.25;;;;;;;;;;5030322;28;20530;-78
2024/03/15 06:54:08;;;;;;;3.10;2.00;;;;;;;;;;5024659;28;20048;-78
2024/03/15 06:56:36;;;;;;;2.75;2.30;;;9.60;92.60;;;;;;5028694;28;20546;-77
2024/03/15 06:59:02;;;;;;;4.70;2.88;;;;;;;;;;5028949;28;20511;-77
2024/03/15 07:01:28;;;;;;;8.02;4.18;;;;;;;;;;5029001;28;20037;-78
2024/03/15 07:03:55;;;;;;;4.13;2.30;;;9.90;93.10;;;;;;5029648;28;20384;-77
2024/03/15 07:06:21;;;;;;;3.15;2.80;;;;;;;;;;5029269;28;20095;-77
2024/03/15 07:08:52;;;;;;;2.63;1.90;;;10.10;94.40;;;;;;5029337;28;20491;-77
2024/03/15 07:11:18;;;;;;;5.90;2.38;;;;;;;;;;5029049;28;20037;-78
2024/03/15 07:13:45;;;;;;;3.90;2.75;;;;;;;;;;5029204;28;20034;-78
2024/03/15 07:16:11;;;;;;;3.58;2.42;;;;;;;;;;5029546;28;20036;-78
2024/03/15 07:18:37;;;;;;;6.18;3.85;;;;;;;;;;5028708;28;20034;-78
2024/03/15 07:21:03;;;;;;;2.70;2.03;;;11.30;96.40;;;;;;5020784;28;20493;-85
2024/03/15 07:23:31;;;;;;;5.88;2.47;;;;;;;;;;5008199;28;20038;-84
2024/03/15 07:25:57;;;;;;;5.22;2.13;;;;;;;;;;5015274;28;20091;-83
2024/03/15 07:28:23;;;;;;;3.47;1.88;;;;;;;;;;5026088;28;20483;-82
2024/03/15 07:30:55;;;;;;;4.45;2.50;;;10.40;92.00;;;;;;5023371;28;20045;-81
2024/03/15 07:33:23;;;;;;;4.18;2.95;;;;;;;;;;5022362;28;20032;-82
2024/03/15 07:35:49;;;;;;;8.43;3.10;;;;;;;;;;5026269;28;20026;-84
2024/03/15 07:38:17;;;;;;;6.20;2.50;;;;;;;;;;5026376;28;20507;-83
2024/03/15 07:40:43;;;;;;;6.35;3.03;;;;;;;;;;5025337;28;20018;-83
2024/03/15 07:43:09;;;;;;;5.57;3.00;;;;;;;;;;5022844;28;20095;-83
2024/03/15 07:45:35;;;;;;;9.45;2.97;;;10.60;94.50;;;;;;5026558;28;20029;-83
2024/03/15 07:48:01;;;;;;;6.90;2.67;;;;;;;;;;5027476;28;20032;-83
2024/03/15 07:50:27;;;;;;;10.13;3.10;;;;;;;;;;5026774;28;20021;-83
2024/03/15 07:52:53;;;;;;;4.80;2.95;;;;;;;;;;5021433;28;20041;-84
2024/03/15 07:55:22;;;;;;;11.65;3.53;;;;;;;;;;5026566;28;20029;-84
2024/03/15 07:57:48;;;;;;;6.38;3.65;;;;;;;;;;5026926;28;20495;-84
2024/03/15 08:00:15;;;;;;;5.25;2.10;;;;;;;;;;5023165;28;20819;-82
2024/03/15 08:02:41;;;;;;;3.13;2.35;;;;;;;;;;5023751;28;20119;-85
2024/03/15 08:05:10;;;;;;;5.55;2.63;;;;;;;;;;5025935;28;20029;-82
2024/03/15 08:07:36;;;;;;;5.93;2.63;;;;;;;;;;5023238;28;20402;-78
2024/03/15 08:10:02;;;;;;;5.53;3.25;;;;;;;;;;5025236;28;20036;-78
2024/03/15 08:12:28;;;;;;;15.70;9.27;;;;;;;;;;5020193;28;20034;-79
2024/03/15 08:14:54;;;;;;;15.77;9.43;;;;;;;;;;5026469;28;20079;-80
2024/03/15 08:17:20;;;;;;;12.90;5.13;;;;;;;;;;5026672;28;20041;-87
2024/03/15 08:19:49;;;;;;;13.68;6.53;;;;;;;;;;5025521;28;20025;-85
2024/03/15 08:22:15;;;;;;;7.55;4.40;;;;;;;;;;5024950;28;20121;-90
2024/03/15 08:24:41;;;;;;;5.47;4.35;;;;;;;;;;5028074;28;20021;-83
2024/03/15 08:27:08;;;;;;;5.47;3.80;;;;;;;;;;5027492;28;20037;-84
2024/03/15 08:29:33;;;;;;;10.50;3.50;;;;;;;;;;5026118;28;20089;-81
2024/03/15 08:32:00;;;;;;;3.80;2.17;;;;;;;;;;5017202;28;20080;-85
2024/03/15 08:34:26;;;;;;;3.83;2.58;;;;;;;;;;5022077;28;20064;-86
2024/03/15 08:36:53;;;;;;;6.03;3.65;;;12.50;99.90;;;;;;5023790;28;20058;-84
2024/03/15 08:39:24;;;;;;;9.32;4.28;;;;;;;;;;5027311;28;20021;-85
2024/03/15 08:41:50;;;;;;;21.02;11.48;;;;;;;;;;5025781;28;20057;-83
2024/03/15 08:44:16;;;;;;;24.13;10.90;;;;;;;;;;5021317;28;20017;-84
2024/03/15 08:46:45;;;;;;;16.42;9.98;;;;;;;;;;5026330;28;20029;-86
2024/03/15 08:49:11;;;;;;;11.82;5.70;;;;;;;;;;5025068;28;20041;-86
2024/03/15 08:51:37;;;;;;;8.93;3.97;;;;;;;;;;5024920;28;20033;-86
2024/03/15 08:54:07;;;;;;;15.32;4.32;;;;;;;;;;5023547;28;20033;-85
2024/03/15 08:56:33;;;;;;;6.20;4.35;;;;;;;;;;5029653;28;20021;-91
2024/03/15 08:58:58;;;;;;;7.53;4.15;;;15.10;91.60;;;;;;5034266;28;20029;-87
2024/03/15 09:01:32;;;;;;;8.07;5.68;;;;;;;;;;5028346;28;20522;-82
2024/03/15 09:03:59;;;;;;;16.75;6.95;;;;;;;;;;5025373;28;20039;-82
2024/03/15 09:06:27;;;;;;;12.65;6.45;;;;;;;;;;5028708;28;20040;-84
2024/03/15 09:08:56;;;;;;;9.68;6.03;;;;;;;;;;5030481;28;20057;-84
2024/03/15 09:11:25;;;;;;;13.63;6.50;;;;;;;;;;5029538;28;20434;-84
2024/03/15 09:13:53;;;;;;;13.82;5.28;;;;;;;;;;5025726;28;20331;-83
2024/03/15 09:16:20;;;;;;;10.70;3.92;;;;;;;;;;5029021;28;20021;-83
2024/03/15 09:18:47;;;;;;;9.65;4.38;;;;;;;;;;5029942;28;20044;-81
2024/03/15 09:21:13;;;;;;;5.68;2.58;;;;;;;;;;5027830;28;20029;-83
2024/03/15 09:23:39;;;;;;;6.97;3.20;;;;;;;;;;5024898;28;20033;-84
2024/03/15 09:26:06;;;;;;;5.80;2.90;;;;;;;;;;5028890;28;20410;-85
2024/03/15 09:28:37;;;;;;;3.10;2.17;;;;;;;;;;5028640;28;20065;-85
2024/03/15 09:31:08;;;;;;;6.85;4.00;;;;;;;;;;5029412;28;20259;-83
2024/03/15 09:33:35;;;;;;;8.52;2.47;;;;;;;;;;5021703;28;20575;-87
2024/03/15 09:36:04;;;;;;;4.20;2.58;;;;;;;;;;5029699;28;20029;-88
2024/03/15 09:38:32;;;;;;;11.27;3.00;;;;;;;;;;5030438;28;20021;-87
2024/03/15 09:40:58;;;;;;;5.45;2.55;;;;;;;;;;5028934;28;20124;-88
2024/03/15 09:43:29;;;;;;;3.28;2.63;;;16.10;76.00;;;;;;5025202;28;20655;-85
2024/03/15 09:45:57;;;;;;;2.75;2.17;;;16.00;77.00;;;;;;5028968;28;20104;-85
2024/03/15 09:48:24;;;;;;;;;;;16.00;77.00;;;;;;5029215;28;20033;-82
2024/03/15 09:50:52;;;;;;;11.20;3.15;;;15.90;77.90;;;;;;5028622;28;19917;-82
2024/03/15 09:53:19;;;;;;;2.75;2.17;;;;;;;;;;5024454;28;20037;-84
2024/03/15 09:55:52;;;;;;;11.10;2.07;;;15.40;78.20;;;;;;5027588;28;20033;-85
2024/03/15 09:58:20;;;;;;;3.83;2.20;;;15.00;78.60;;;;;;5029797;28;20075;-86
2024/03/15 10:00:47;;;;;;;3.35;2.05;;;;;;;;;;5028946;28;20076;-85
2024/03/15 10:03:13;;;;;;;2.45;1.75;;;;;;;;;;5023769;28;20336;-86
2024/03/15 10:05:39;;;;;;;1.83;1.60;;;;;;;;;;5029264;28;20454;-86
2024/03/15 10:08:06;;;;;;;8.00;1.83;;;14.50;80.10;;;;;;5028609;28;20036;-83
2024/03/15 10:10:32;;;;;;;1.88;1.38;;;;;;;;;;5028654;28;20496;-84
2024/03/15 10:12:58;;;;;;;7.80;2.10;;;;;;;;;;5023998;28;20044;-84
2024/03/15 10:15:24;;;;;;;3.40;1.90;;;;;;;;;;5028960;28;20160;-84
2024/03/15 10:17:54;;;;;;;4.55;3.42;;;16.90;91.80;;;;;;5029268;28;20079;-84
2024/03/15 10:20:25;;;;;;;4.63;2.25;;;20.40;73.30;;;;;;5028755;28;20036;-85
2024/03/15 10:22:54;;;;;;;3.63;1.70;;;23.90;73.70;;;;;;5023804;28;20060;-85
2024/03/15 10:25:25;;;;;;;3.60;2.38;;;25.30;54.60;;;;;;5028531;28;20024;-85
2024/03/15 10:27:55;;;;;;;4.10;2.25;;;26.90;52.80;;;;;;5028020;28;20064;-86
2024/03/15 10:30:25;;;;;;;4.88;2.33;;;28.50;51.00;;;;;;5029782;28;20033;-88
2024/03/15 10:32:52;;;;;;;6.15;2.25;;;31.80;48.80;;;;;;5024072;28;20029;-87
2024/03/15 10:35:19;;;;;;;4.70;1.95;;;33.60;46.30;;;;;;5029617;28;20029;-87
2024/03/15 10:37:45;;;;;;;9.15;2.72;;;38.70;50.80;;;;;;5028957;28;20049;-89
2024/03/15 10:40:13;;;;;;;4.93;1.52;;;42.50;38.20;;;;;;5029070;28;20038;-88
2024/03/15 10:42:43;;;;;;;3.13;1.05;;;43.10;34.70;;;;;;5024049;28;20168;-88
2024/03/15 10:45:12;;;;;;;3.05;0.90;;;40.70;33.10;;;;;;5027162;28;20442;-89
2024/03/15 10:47:40;;;;;;;1.73;1.08;;;39.70;34.90;;;;;;5026786;28;20091;-86
2024/03/15 10:50:11;;;;;;;1.20;0.85;;;42.20;33.00;;;;;;5029181;28;20029;-87
2024/03/15 10:52:42;;;;;;;1.30;0.75;;;43.20;30.90;;;;;;5021355;28;21041;-86
2024/03/15 10:55:18;;;;;;;2.40;0.95;;;44.10;32.50;;;;;;5026549;28;20076;-83
2024/03/15 10:57:45;;;;;;;1.45;0.80;;;44.50;28.80;;;;;;5028396;28;20080;-79
2024/03/15 11:00:24;;;;;;;4.47;0.82;;;45.00;35.30;;;;;;5027948;28;20026;-79
2024/03/15 11:02:54;;;;;;;0.88;0.50;;;45.50;33.80;;;;;;5022877;28;20069;-79
2024/03/15 11:05:23;;;;;;;2.40;0.63;;;45.80;28.00;;;;;;5028603;28;20034;-83
2024/03/15 11:08:02;;;;;;;2.40;0.73;;;46.00;27.70;;;;;;5027103;28;20724;-83
2024/03/15 11:10:28;;;;;;;3.78;0.70;;;;;;;;;;5028071;28;20057;-84
2024/03/15 11:12:57;;;;;;;;;;;45.90;26.80;;;;;;5024820;28;20036;-84
2024/03/15 11:15:23;;;;;;;3.63;0.38;;;;;;;;;;5028634;28;19909;-84
2024/03/15 11:18:02;;;;;;;0.55;0.15;;;44.90;26.50;;;;;;5027533;28;20018;-87
2024/03/15 11:20:46;;;;;;;0.30;0.25;;;44.30;25.40;;;;;;5024299;28;20113;-86
2024/03/15 11:23:19;;;;;;;1.42;0.52;;;42.60;34.80;;;;;;5023093;28;20507;-85
2024/03/15 11:26:08;;;;;;;0.98;0.43;;;41.90;34.70;;;;;;5028517;28;20029;-84
2024/03/15 11:28:37;;;;;;;0.73;0.30;;;41.40;25.20;;;;;;5028245;28;20053;-85
2024/03/15 11:31:04;;;;;;;0.95;0.40;;;;;;;;;;5027531;28;20025;-84
2024/03/15 11:33:31;;;;;;;0.77;0.30;;;39.50;25.10;;;;;;5023464;28;20029;-84
2024/03/15 11:35:57;;;;;;;0.95;0.52;;;39.30;25.40;;;;;;5027595;28;20083;-84
2024/03/15 11:38:24;;;;;;;0.85;0.30;;;;;;;;;;5026640;28;20025;-84
2024/03/15 11:40:52;;;;;;;0.38;0.30;;;37.50;25.50;;;;;;5028285;28;20104;-84
2024/03/15 11:43:18;;;;;;;0.38;0.20;;;;;;;;;;5023478;28;20057;-83
2024/03/15 11:45:45;;;;;;;2.70;0.73;;;;;;;;;;5028613;28;20115;-84
2024/03/15 11:48:21;;;;;;;1.55;0.38;;;32.30;26.20;;;;;;5028467;28;20274;-84
2024/03/15 11:50:49;;;;;;;0.63;0.28;;;32.60;27.70;;;;;;5027998;28;20178;-84
2024/03/15 11:53:17;;;;;;;1.33;0.40;;;31.30;28.80;;;;;;5025257;28;20556;-84
2024/03/15 11:55:44;;;;;;;0.47;0.38;;;29.80;29.60;;;;;;5026926;28;20065;-84
2024/03/15 11:58:14;;;;;;;0.55;0.40;;;28.10;30.90;;;;;;5027068;28;20099;-84
2024/03/15 12:00:58;;;;;;;1.52;0.60;;;27.40;48.00;;;;;;5027384;28;20041;-81
2024/03/15 12:03:26;;;;;;;1.00;0.70;;;27.10;32.90;;;;;;5021231;28;20045;-80
2024/03/15 12:05:53;;;;;;;1.23;0.95;;;;;;;;;;5026397;28;20171;-79
2024/03/15 12:08:23;;;;;;;3.08;1.15;;;27.20;33.90;;;;;;5026965;28;20107;-82
2024/03/15 12:10:49;;;;;;;2.40;1.02;;;26.80;34.10;;;;;;5025874;28;20025;-78
2024/03/15 12:13:21;;;;;;;5.05;2.10;;;27.10;34.40;;;;;;5023072;28;20052;-81
2024/03/15 12:15:47;;;;;;;5.68;2.42;;;;;;;;;;5027672;28;20038;-81
2024/03/15 12:18:14;;;;;;;2.67;1.83;;;26.80;34.50;;;;;;5026047;28;20531;-81
2024/03/15 12:20:41;;;;;;;0.70;0.68;;;26.60;34.60;;;;;;5026256;28;20033;-79
2024/03/15 12:23:07;;;;;;;0.52;0.52;;;26.30;35.20;;;;;;5023855;28;20497;-81
2024/03/15 12:25:33;;;;;;;0.87;0.63;;;;;;;;;;5026159;28;20028;-75
2024/03/15 12:27:59;;;;;;;0.55;0.40;;;;;;;;;;5025077;28;20411;-81
2024/03/15 12:30:25;;;;;;;2.38;1.00;;;;;;;;;;5030850;28;20026;-80
2024/03/15 12:32:51;;;;;;;0.65;0.30;;;26.00;39.80;;;;;;5027140;28;20490;-79
2024/03/15 12:35:17;;;;;;;1.08;0.50;;;;;;;;;;5029284;28;20125;-79
2024/03/15 12:37:44;;;;;;;0.45;0.40;;;;;;;;;;5030449;28;20414;-79
2024/03/15 12:40:16;;;;;;;0.70;0.70;;;25.30;39.40;;;;;;5031498;28;20051;-78
2024/03/15 12:42:43;;;;;;;0.73;0.73;;;;;;;;;;5027172;28;20589;-88
2024/03/15 12:45:10;;;;;;;1.55;0.40;;;;;;;;;;5030389;28;20029;-87
2024/03/15 12:47:37;;;;;;;1.13;0.57;;;;;;;;;;5030939;28;20091;-90
2024/03/15 12:50:26;;;;;;;3.42;0.50;;;25.20;36.50;;;;;;5029562;28;20029;-86
2024/03/15 12:52:53;;;;;;;0.70;0.60;;;;;;;;;;5027279;28;20049;-83
2024/03/15 12:55:19;;;;;;;0.65;0.20;;;;;;;;;;5022899;28;20029;-84
2024/03/15 12:57:47;;;;;;;3.45;0.65;;;24.60;36.70;;;;;;5029529;28;20026;-85
2024/03/15 13:00:17;;;;;;;0.50;0.45;;;24.20;36.70;;;;;;5032059;28;20116;-85
2024/03/15 13:02:46;;;;;;;1.70;1.00;;;21.60;38.40;;;;;;5027623;28;20589;-78
2024/03/15 13:05:16;;;;;;;1.58;1.10;;;23.80;54.00;;;;;;5029145;28;20431;-81
2024/03/15 13:07:46;;;;;;;1.02;0.60;;;23.40;37.70;;;;;;5028973;28;20030;-83
2024/03/15 13:10:12;;;;;;;1.85;0.77;;;;;;;;;;5029646;28;20376;-83
2024/03/15 13:12:38;;;;;;;1.50;0.50;;;;;;;;;;5024952;28;20033;-85
2024/03/15 13:15:14;;;;;;;1.17;0.45;;;23.10;38.20;;;;;;5028907;28;20542;-85
2024/03/15 13:17:40;;;;;;;0.88;0.60;;;;;;;;;;5029893;28;20453;-88
2024/03/15 13:20:16;;;;;;;1.17;0.40;;;22.70;55.00;;;;;;5030782;28;20116;-89
2024/03/15 13:22:44;;;;;;;2.13;0.68;;;22.30;39.00;;;;;;5026787;28;20060;-93
2024/03/15 13:25:12;;;;;;;1.33;0.73;;;22.10;39.40;;;;;;5030884;28;20076;-85
2024/03/15 13:27:39;;;;;;;1.08;0.75;;;;;;;;;;5029886;28;20040;-85
2024/03/15 13:30:14;;;;;;;1.10;0.93;;;21.20;41.00;;;;;;5029708;28;20172;-85
2024/03/15 13:32:41;;;;;;;1.02;0.70;;;;;;;;;;5026311;28;20437;-87
2024/03/15 13:35:15;;;;;;;1.10;0.45;;;21.40;42.70;;;;;;5030232;28;20033;-87
2024/03/15 13:37:41;;;;;;;4.07;0.77;;;;;;;;;;5030159;28;20029;-84
2024/03/15 13:40:15;;;;;;;0.85;0.82;;;;;;;;;;5029699;28;20134;-84
2024/03/15 13:42:42;;;;;;;0.75;0.65;;;21.00;41.90;;;;;;5024807;28;20172;-85
2024/03/15 13:45:15;;;;;;;0.82;0.70;;;;;;;;;;5029886;28;20025;-88
2024/03/15 13:47:41;;;;;;;0.82;0.70;;;;;;;;;;5028971;28;20029;-85
2024/03/15 13:50:19;;;;;;;3.58;1.20;;;23.30;43.10;;;;;;5029050;28;20025;-85
2024/03/15 13:52:46;;;;;;;0.68;0.50;;;20.40;43.10;;;;;;5025158;28;20040;-84
2024/03/15 13:55:12;;;;;;;1.95;0.60;;;;;;;;;;5029676;28;20151;-83
2024/03/15 13:57:38;;;;;;;0.55;0.52;;;;;;;;;;5027861;28;20083;-88
2024/03/15 14:00:30;;;;;;;1.65;0.93;;;18.80;46.90;;;;;;5026803;28;20022;-86
2024/03/15 14:02:52;;;;;;;1.27;0.85;;;;;;;;;;5023156;28;20515;-89
2024/03/15 14:05:18;;;;;;;0.82;0.63;;;;;;;;;;5029049;28;20029;-88
2024/03/15 14:07:45;;;;;;;1.55;0.80;;;;;;;;;;5029780;28;20033;-91
2024/03/15 14:10:17;;;;;;;4.47;1.10;;;;;;;;;;5028776;28;20025;-89